Westville, IL (61883)

10:06 PM CDT on March 25, 2017 (GMT -0500)
Vermilion County Emergency Management Agency | | Change Station

Elev 655 ft 40.08 °N, 87.63 °W | Updated 9 seconds ago

Overcast
Overcast
62.3 °F
Feels Like 62.3 °F
N
2.3
Wind Variable Wind from South
Gusts 2.3 mph

Today
High -- | Low -- °F
--% Chance of Precip.
Yesterday
High -- | Low -- °F
Precip. -- in
Pressure 29.91 in
Visibility 10.0 miles
Clouds Scattered Clouds 5500 ft
Mostly Cloudy 8500 ft
Overcast 11000 ft
Dew Point 62 °F
Humidity 100%
Rainfall 0.00 in
Snow Depth Not available.
6:45 AM 7:08 PM
Waning Crescent, 5% visible
METAR KDNV 260255Z AUTO 12005KT 10SM SCT055 BKN085 OVC110 16/13 A2991 RMK AO2 T01560126
Pressure 29.91 in
Visibility 10.0 miles
Clouds Scattered Clouds 5500 ft
Mostly Cloudy 8500 ft
Overcast 11000 ft
Dew Point 62 °F
Humidity 100%
Rainfall 0.00 in
Snow Depth Not available.
6:45 AM 7:08 PM
Waning Crescent, 5% visible
METAR KDNV 260255Z AUTO 12005KT 10SM SCT055 BKN085 OVC110 16/13 A2991 RMK AO2 T01560126

Get Severe Weather Alerts

Thanks for signing up!

Be on the lookout for a verification email in your inbox.

You'll start receiving the daily forecast at 8 AM.

×

10-Day Weather Forecast

Almanac

Astronomy

Mar. 25, 2017 Rise Set
Actual Time
Civil Twilight
Nautical Twilight
Astronomical Twilight
Moon
Length of Visible Light
Length of Day
Tomorrow will be .
, % of the Moon is Illuminated

Today's Extremes

State Highs State Lows

Community

WunderPhotos

Upload Photos

1,962,540 photos uploaded!

WunderBlog® & News

Nearby

Air Quality

  Air Quality AQ Index Pollutant
Not available.

Snow Depth

Station Depth Elevation

Earthquake Activity

City Distance Mag. Time & Date
Minimum magnitude displayed is 2.5.

Earthquake Activity

City Distance Mag. Time & Date
Minimum magnitude displayed is 2.5.

Coastal Water Temperatures

Place Temperature

Stations

Nearby Weather Stations

Station Location Temp. Windchill Dew Point Humidity Wind Precip. Elev Updated Type
                   

Watches & Warnings

There are currently no watches in effect.